sensor_id;sensor_type;location;lat;lon;timestamp;P1;durP1;ratioP1;P2;durP2;ratioP2
73940;SDS011;62294;48.554;10.202;2023-12-20T00:02:06;5.07;;;2.88;;
73940;SDS011;62294;48.554;10.202;2023-12-20T00:04:33;1.60;;;1.50;;
73940;SDS011;62294;48.554;10.202;2023-12-20T00:06:59;2.50;;;2.00;;
73940;SDS011;62294;48.554;10.202;2023-12-20T00:09:26;2.15;;;1.75;;
73940;SDS011;62294;48.554;10.202;2023-12-20T00:11:53;4.82;;;2.63;;
73940;SDS011;62294;48.554;10.202;2023-12-20T00:14:19;4.15;;;1.88;;
73940;SDS011;62294;48.554;10.202;2023-12-20T00:16:46;4.05;;;2.55;;
73940;SDS011;62294;48.554;10.202;2023-12-20T00:19:13;5.13;;;3.15;;
73940;SDS011;62294;48.554;10.202;2023-12-20T00:21:40;5.32;;;2.78;;
73940;SDS011;62294;48.554;10.202;2023-12-20T00:24:06;4.10;;;2.22;;
73940;SDS011;62294;48.554;10.202;2023-12-20T00:26:33;2.75;;;1.95;;
73940;SDS011;62294;48.554;10.202;2023-12-20T00:29:00;4.85;;;2.60;;
73940;SDS011;62294;48.554;10.202;2023-12-20T00:31:26;1.85;;;1.48;;
73940;SDS011;62294;48.554;10.202;2023-12-20T00:33:53;3.08;;;1.77;;
73940;SDS011;62294;48.554;10.202;2023-12-20T00:36:20;1.77;;;1.50;;
73940;SDS011;62294;48.554;10.202;2023-12-20T00:38:47;2.40;;;1.50;;
73940;SDS011;62294;48.554;10.202;2023-12-20T00:41:14;3.97;;;1.88;;
73940;SDS011;62294;48.554;10.202;2023-12-20T00:43:41;3.50;;;1.63;;
73940;SDS011;62294;48.554;10.202;2023-12-20T00:46:08;3.30;;;1.33;;
73940;SDS011;62294;48.554;10.202;2023-12-20T00:48:34;1.80;;;1.27;;
73940;SDS011;62294;48.554;10.202;2023-12-20T00:51:01;2.72;;;1.38;;
73940;SDS011;62294;48.554;10.202;2023-12-20T00:53:28;2.92;;;1.63;;
73940;SDS011;62294;48.554;10.202;2023-12-20T00:55:54;2.85;;;1.35;;
73940;SDS011;62294;48.554;10.202;2023-12-20T00:58:21;3.55;;;2.20;;
73940;SDS011;62294;48.554;10.202;2023-12-20T01:00:47;3.92;;;2.00;;
73940;SDS011;62294;48.554;10.202;2023-12-20T01:03:14;3.63;;;2.17;;
73940;SDS011;62294;48.554;10.202;2023-12-20T01:05:41;1.83;;;1.25;;
73940;SDS011;62294;48.554;10.202;2023-12-20T01:08:08;2.42;;;1.70;;
73940;SDS011;62294;48.554;10.202;2023-12-20T01:10:35;2.20;;;1.42;;
73940;SDS011;62294;48.554;10.202;2023-12-20T01:13:02;4.10;;;1.38;;
73940;SDS011;62294;48.554;10.202;2023-12-20T01:15:28;4.28;;;2.17;;
73940;SDS011;62294;48.554;10.202;2023-12-20T01:17:55;2.90;;;1.75;;
73940;SDS011;62294;48.554;10.202;2023-12-20T01:20:23;1.55;;;1.23;;
73940;SDS011;62294;48.554;10.202;2023-12-20T01:22:50;1.92;;;1.52;;
73940;SDS011;62294;48.554;10.202;2023-12-20T01:25:16;4.57;;;2.25;;
73940;SDS011;62294;48.554;10.202;2023-12-20T01:27:44;3.08;;;1.95;;
73940;SDS011;62294;48.554;10.202;2023-12-20T01:30:11;4.32;;;2.05;;
73940;SDS011;62294;48.554;10.202;2023-12-20T01:32:37;3.35;;;1.80;;
73940;SDS011;62294;48.554;10.202;2023-12-20T01:35:04;3.33;;;1.70;;
73940;SDS011;62294;48.554;10.202;2023-12-20T01:37:31;3.25;;;2.00;;
73940;SDS011;62294;48.554;10.202;2023-12-20T01:39:57;3.63;;;1.98;;
73940;SDS011;62294;48.554;10.202;2023-12-20T01:42:25;4.85;;;1.98;;
73940;SDS011;62294;48.554;10.202;2023-12-20T01:44:51;2.58;;;1.77;;
73940;SDS011;62294;48.554;10.202;2023-12-20T01:47:18;4.63;;;2.20;;
73940;SDS011;62294;48.554;10.202;2023-12-20T01:49:45;1.95;;;1.40;;
73940;SDS011;62294;48.554;10.202;2023-12-20T01:52:12;1.63;;;1.27;;
73940;SDS011;62294;48.554;10.202;2023-12-20T01:54:39;3.22;;;1.88;;
73940;SDS011;62294;48.554;10.202;2023-12-20T01:57:08;2.10;;;1.30;;
73940;SDS011;62294;48.554;10.202;2023-12-20T01:59:36;3.13;;;1.90;;
73940;SDS011;62294;48.554;10.202;2023-12-20T02:02:05;1.67;;;1.40;;
73940;SDS011;62294;48.554;10.202;2023-12-20T02:04:34;1.50;;;1.33;;
73940;SDS011;62294;48.554;10.202;2023-12-20T02:07:02;3.28;;;2.03;;
73940;SDS011;62294;48.554;10.202;2023-12-20T02:09:30;3.72;;;1.80;;
73940;SDS011;62294;48.554;10.202;2023-12-20T02:11:57;3.38;;;1.77;;
73940;SDS011;62294;48.554;10.202;2023-12-20T02:14:23;5.43;;;1.88;;
73940;SDS011;62294;48.554;10.202;2023-12-20T02:16:50;3.30;;;1.52;;
73940;SDS011;62294;48.554;10.202;2023-12-20T02:19:17;3.70;;;1.95;;
73940;SDS011;62294;48.554;10.202;2023-12-20T02:21:44;3.90;;;1.80;;
73940;SDS011;62294;48.554;10.202;2023-12-20T02:24:11;2.47;;;1.60;;
73940;SDS011;62294;48.554;10.202;2023-12-20T02:26:37;4.75;;;2.90;;
73940;SDS011;62294;48.554;10.202;2023-12-20T02:29:05;1.55;;;0.90;;
73940;SDS011;62294;48.554;10.202;2023-12-20T02:31:31;2.97;;;1.88;;
73940;SDS011;62294;48.554;10.202;2023-12-20T02:33:58;2.38;;;1.40;;
73940;SDS011;62294;48.554;10.202;2023-12-20T02:36:25;1.77;;;1.63;;
73940;SDS011;62294;48.554;10.202;2023-12-20T02:38:51;1.25;;;1.02;;
73940;SDS011;62294;48.554;10.202;2023-12-20T02:41:18;1.70;;;0.88;;
73940;SDS011;62294;48.554;10.202;2023-12-20T02:43:45;1.55;;;1.45;;
73940;SDS011;62294;48.554;10.202;2023-12-20T02:46:12;3.10;;;1.38;;
73940;SDS011;62294;48.554;10.202;2023-12-20T02:48:42;2.20;;;1.20;;
73940;SDS011;62294;48.554;10.202;2023-12-20T02:51:08;1.42;;;1.02;;
73940;SDS011;62294;48.554;10.202;2023-12-20T02:53:35;2.67;;;1.58;;
73940;SDS011;62294;48.554;10.202;2023-12-20T02:56:02;1.45;;;0.93;;
73940;SDS011;62294;48.554;10.202;2023-12-20T02:58:28;2.05;;;1.38;;
73940;SDS011;62294;48.554;10.202;2023-12-20T03:00:56;2.50;;;1.30;;
73940;SDS011;62294;48.554;10.202;2023-12-20T03:03:24;2.75;;;1.40;;
73940;SDS011;62294;48.554;10.202;2023-12-20T03:05:50;1.42;;;0.95;;
73940;SDS011;62294;48.554;10.202;2023-12-20T03:08:17;2.22;;;1.85;;
73940;SDS011;62294;48.554;10.202;2023-12-20T03:10:44;4.03;;;1.50;;
73940;SDS011;62294;48.554;10.202;2023-12-20T03:13:11;2.05;;;1.45;;
73940;SDS011;62294;48.554;10.202;2023-12-20T03:15:38;2.05;;;1.38;;
73940;SDS011;62294;48.554;10.202;2023-12-20T03:18:04;1.70;;;1.17;;
73940;SDS011;62294;48.554;10.202;2023-12-20T03:20:31;2.00;;;1.25;;
73940;SDS011;62294;48.554;10.202;2023-12-20T03:23:00;2.25;;;1.30;;
73940;SDS011;62294;48.554;10.202;2023-12-20T03:25:27;2.13;;;1.20;;
73940;SDS011;62294;48.554;10.202;2023-12-20T03:27:54;3.72;;;1.45;;
73940;SDS011;62294;48.554;10.202;2023-12-20T03:30:21;1.95;;;1.15;;
73940;SDS011;62294;48.554;10.202;2023-12-20T03:32:48;1.23;;;1.08;;
73940;SDS011;62294;48.554;10.202;2023-12-20T03:35:14;2.00;;;1.23;;
73940;SDS011;62294;48.554;10.202;2023-12-20T03:37:41;2.15;;;1.30;;
73940;SDS011;62294;48.554;10.202;2023-12-20T03:40:08;3.13;;;1.58;;
73940;SDS011;62294;48.554;10.202;2023-12-20T03:42:35;1.80;;;0.95;;
73940;SDS011;62294;48.554;10.202;2023-12-20T03:45:02;1.13;;;0.80;;
73940;SDS011;62294;48.554;10.202;2023-12-20T03:47:28;2.33;;;1.52;;
73940;SDS011;62294;48.554;10.202;2023-12-20T03:49:55;2.00;;;1.00;;
73940;SDS011;62294;48.554;10.202;2023-12-20T03:52:22;1.63;;;0.95;;
73940;SDS011;62294;48.554;10.202;2023-12-20T03:54:48;2.45;;;1.45;;
73940;SDS011;62294;48.554;10.202;2023-12-20T03:57:15;2.10;;;1.23;;
73940;SDS011;62294;48.554;10.202;2023-12-20T03:59:41;5.63;;;1.88;;
73940;SDS011;62294;48.554;10.202;2023-12-20T04:02:08;1.67;;;1.30;;
73940;SDS011;62294;48.554;10.202;2023-12-20T04:04:35;3.60;;;1.52;;
73940;SDS011;62294;48.554;10.202;2023-12-20T04:07:02;2.53;;;1.45;;
73940;SDS011;62294;48.554;10.202;2023-12-20T04:09:29;2.80;;;1.85;;
73940;SDS011;62294;48.554;10.202;2023-12-20T04:11:55;1.02;;;0.82;;
73940;SDS011;62294;48.554;10.202;2023-12-20T04:14:22;1.88;;;1.00;;
73940;SDS011;62294;48.554;10.202;2023-12-20T04:16:49;1.80;;;1.10;;
73940;SDS011;62294;48.554;10.202;2023-12-20T04:19:15;2.90;;;1.80;;
73940;SDS011;62294;48.554;10.202;2023-12-20T04:21:42;2.35;;;1.30;;
73940;SDS011;62294;48.554;10.202;2023-12-20T04:24:09;1.73;;;1.27;;
73940;SDS011;62294;48.554;10.202;2023-12-20T04:26:36;6.45;;;1.55;;
73940;SDS011;62294;48.554;10.202;2023-12-20T04:29:03;1.80;;;1.45;;
73940;SDS011;62294;48.554;10.202;2023-12-20T04:31:30;2.00;;;1.30;;
73940;SDS011;62294;48.554;10.202;2023-12-20T04:33:57;2.38;;;1.08;;
73940;SDS011;62294;48.554;10.202;2023-12-20T04:36:24;2.25;;;1.23;;
73940;SDS011;62294;48.554;10.202;2023-12-20T04:38:53;2.67;;;1.63;;
73940;SDS011;62294;48.554;10.202;2023-12-20T04:41:20;1.70;;;1.25;;
73940;SDS011;62294;48.554;10.202;2023-12-20T04:43:46;1.70;;;1.13;;
73940;SDS011;62294;48.554;10.202;2023-12-20T04:46:12;5.53;;;1.40;;
73940;SDS011;62294;48.554;10.202;2023-12-20T04:48:39;2.42;;;1.27;;
73940;SDS011;62294;48.554;10.202;2023-12-20T04:51:06;2.50;;;1.55;;
73940;SDS011;62294;48.554;10.202;2023-12-20T04:53:33;1.90;;;1.27;;
73940;SDS011;62294;48.554;10.202;2023-12-20T04:55:59;2.75;;;1.33;;
73940;SDS011;62294;48.554;10.202;2023-12-20T04:58:26;4.72;;;1.42;;
73940;SDS011;62294;48.554;10.202;2023-12-20T05:00:52;0.90;;;0.77;;
73940;SDS011;62294;48.554;10.202;2023-12-20T05:03:19;2.35;;;1.13;;
73940;SDS011;62294;48.554;10.202;2023-12-20T05:05:46;1.70;;;1.30;;
73940;SDS011;62294;48.554;10.202;2023-12-20T05:08:12;3.35;;;1.60;;
73940;SDS011;62294;48.554;10.202;2023-12-20T05:10:39;2.22;;;1.30;;
73940;SDS011;62294;48.554;10.202;2023-12-20T05:13:06;1.90;;;1.33;;
73940;SDS011;62294;48.554;10.202;2023-12-20T05:15:34;1.42;;;1.15;;
73940;SDS011;62294;48.554;10.202;2023-12-20T05:18:00;2.05;;;1.52;;
73940;SDS011;62294;48.554;10.202;2023-12-20T05:20:27;1.98;;;1.52;;
73940;SDS011;62294;48.554;10.202;2023-12-20T05:22:54;2.10;;;0.98;;
73940;SDS011;62294;48.554;10.202;2023-12-20T05:25:20;1.23;;;0.82;;
73940;SDS011;62294;48.554;10.202;2023-12-20T05:27:47;0.50;;;0.50;;
73940;SDS011;62294;48.554;10.202;2023-12-20T05:30:14;0.82;;;0.80;;
73940;SDS011;62294;48.554;10.202;2023-12-20T05:32:41;0.75;;;0.50;;
73940;SDS011;62294;48.554;10.202;2023-12-20T05:35:08;0.77;;;0.47;;
73940;SDS011;62294;48.554;10.202;2023-12-20T05:37:34;0.88;;;0.40;;
73940;SDS011;62294;48.554;10.202;2023-12-20T05:40:01;0.40;;;0.38;;
73940;SDS011;62294;48.554;10.202;2023-12-20T05:42:27;0.20;;;0.20;;
73940;SDS011;62294;48.554;10.202;2023-12-20T05:44:54;0.65;;;0.30;;
73940;SDS011;62294;48.554;10.202;2023-12-20T05:47:24;0.82;;;0.25;;
73940;SDS011;62294;48.554;10.202;2023-12-20T05:49:51;0.17;;;0.17;;
73940;SDS011;62294;48.554;10.202;2023-12-20T05:52:17;0.40;;;0.10;;
73940;SDS011;62294;48.554;10.202;2023-12-20T05:54:44;0.30;;;0.30;;
73940;SDS011;62294;48.554;10.202;2023-12-20T05:57:10;0.20;;;0.20;;
73940;SDS011;62294;48.554;10.202;2023-12-20T05:59:37;0.28;;;0.20;;
73940;SDS011;62294;48.554;10.202;2023-12-20T06:02:04;0.47;;;0.10;;
73940;SDS011;62294;48.554;10.202;2023-12-20T06:04:31;0.00;;;0.00;;
73940;SDS011;62294;48.554;10.202;2023-12-20T06:06:58;0.20;;;0.20;;
73940;SDS011;62294;48.554;10.202;2023-12-20T06:09:28;0.10;;;0.10;;
73940;SDS011;62294;48.554;10.202;2023-12-20T06:11:57;0.10;;;0.10;;
73940;SDS011;62294;48.554;10.202;2023-12-20T06:14:24;0.05;;;0.05;;
73940;SDS011;62294;48.554;10.202;2023-12-20T06:16:51;0.20;;;0.20;;
73940;SDS011;62294;48.554;10.202;2023-12-20T06:19:17;0.17;;;0.17;;
73940;SDS011;62294;48.554;10.202;2023-12-20T06:21:44;0.20;;;0.15;;
73940;SDS011;62294;48.554;10.202;2023-12-20T06:24:11;0.20;;;0.15;;
73940;SDS011;62294;48.554;10.202;2023-12-20T06:26:37;0.00;;;0.00;;
73940;SDS011;62294;48.554;10.202;2023-12-20T06:29:04;0.90;;;0.20;;
73940;SDS011;62294;48.554;10.202;2023-12-20T06:31:31;0.10;;;0.10;;
73940;SDS011;62294;48.554;10.202;2023-12-20T06:33:59;0.30;;;0.30;;
73940;SDS011;62294;48.554;10.202;2023-12-20T06:36:26;0.17;;;0.17;;
73940;SDS011;62294;48.554;10.202;2023-12-20T06:38:53;0.20;;;0.20;;
73940;SDS011;62294;48.554;10.202;2023-12-20T06:41:20;0.17;;;0.17;;
73940;SDS011;62294;48.554;10.202;2023-12-20T06:43:46;0.00;;;0.00;;
73940;SDS011;62294;48.554;10.202;2023-12-20T06:46:16;0.10;;;0.10;;
73940;SDS011;62294;48.554;10.202;2023-12-20T06:48:43;0.10;;;0.10;;
73940;SDS011;62294;48.554;10.202;2023-12-20T06:51:14;0.10;;;0.10;;
73940;SDS011;62294;48.554;10.202;2023-12-20T06:53:41;0.20;;;0.20;;
73940;SDS011;62294;48.554;10.202;2023-12-20T06:56:10;2.83;;;0.75;;
73940;SDS011;62294;48.554;10.202;2023-12-20T06:58:41;0.70;;;0.60;;
73940;SDS011;62294;48.554;10.202;2023-12-20T07:01:11;0.40;;;0.40;;
73940;SDS011;62294;48.554;10.202;2023-12-20T07:03:41;0.63;;;0.40;;
73940;SDS011;62294;48.554;10.202;2023-12-20T07:06:08;0.50;;;0.50;;
73940;SDS011;62294;48.554;10.202;2023-12-20T07:08:35;1.23;;;0.68;;
73940;SDS011;62294;48.554;10.202;2023-12-20T07:11:02;0.17;;;0.17;;
73940;SDS011;62294;48.554;10.202;2023-12-20T07:13:29;0.30;;;0.30;;
73940;SDS011;62294;48.554;10.202;2023-12-20T07:15:56;0.10;;;0.10;;
73940;SDS011;62294;48.554;10.202;2023-12-20T07:18:23;0.68;;;0.40;;
73940;SDS011;62294;48.554;10.202;2023-12-20T07:20:50;0.65;;;0.32;;
73940;SDS011;62294;48.554;10.202;2023-12-20T07:23:16;0.30;;;0.30;;
73940;SDS011;62294;48.554;10.202;2023-12-20T07:25:43;0.30;;;0.30;;
73940;SDS011;62294;48.554;10.202;2023-12-20T07:28:09;0.10;;;0.10;;
73940;SDS011;62294;48.554;10.202;2023-12-20T07:30:36;0.15;;;0.15;;
73940;SDS011;62294;48.554;10.202;2023-12-20T07:33:03;0.35;;;0.10;;
73940;SDS011;62294;48.554;10.202;2023-12-20T07:35:30;0.47;;;0.20;;
73940;SDS011;62294;48.554;10.202;2023-12-20T07:37:56;0.13;;;0.10;;
73940;SDS011;62294;48.554;10.202;2023-12-20T07:40:23;0.60;;;0.22;;
73940;SDS011;62294;48.554;10.202;2023-12-20T07:42:50;0.38;;;0.38;;
73940;SDS011;62294;48.554;10.202;2023-12-20T07:45:17;0.90;;;0.17;;
73940;SDS011;62294;48.554;10.202;2023-12-20T07:47:43;0.30;;;0.30;;
73940;SDS011;62294;48.554;10.202;2023-12-20T07:50:10;0.10;;;0.10;;
73940;SDS011;62294;48.554;10.202;2023-12-20T07:52:37;1.05;;;0.88;;
73940;SDS011;62294;48.554;10.202;2023-12-20T07:55:04;0.30;;;0.30;;
73940;SDS011;62294;48.554;10.202;2023-12-20T07:57:30;0.22;;;0.22;;
73940;SDS011;62294;48.554;10.202;2023-12-20T07:59:57;0.30;;;0.20;;
73940;SDS011;62294;48.554;10.202;2023-12-20T08:02:24;0.65;;;0.50;;
73940;SDS011;62294;48.554;10.202;2023-12-20T08:04:50;0.35;;;0.28;;
73940;SDS011;62294;48.554;10.202;2023-12-20T08:07:17;0.90;;;0.50;;
73940;SDS011;62294;48.554;10.202;2023-12-20T08:09:43;0.43;;;0.38;;
73940;SDS011;62294;48.554;10.202;2023-12-20T08:12:10;0.32;;;0.30;;
73940;SDS011;62294;48.554;10.202;2023-12-20T08:14:37;0.98;;;0.60;;
73940;SDS011;62294;48.554;10.202;2023-12-20T08:17:04;0.52;;;0.30;;
73940;SDS011;62294;48.554;10.202;2023-12-20T08:19:30;0.20;;;0.20;;
73940;SDS011;62294;48.554;10.202;2023-12-20T08:21:57;0.50;;;0.40;;
73940;SDS011;62294;48.554;10.202;2023-12-20T08:24:24;0.40;;;0.30;;
73940;SDS011;62294;48.554;10.202;2023-12-20T08:26:50;0.85;;;0.30;;
73940;SDS011;62294;48.554;10.202;2023-12-20T08:29:17;0.40;;;0.38;;
73940;SDS011;62294;48.554;10.202;2023-12-20T08:31:43;0.20;;;0.20;;
73940;SDS011;62294;48.554;10.202;2023-12-20T08:34:10;0.63;;;0.15;;
73940;SDS011;62294;48.554;10.202;2023-12-20T08:36:39;0.20;;;0.20;;
73940;SDS011;62294;48.554;10.202;2023-12-20T08:39:05;0.25;;;0.22;;
73940;SDS011;62294;48.554;10.202;2023-12-20T08:41:34;0.30;;;0.30;;
73940;SDS011;62294;48.554;10.202;2023-12-20T08:44:01;0.63;;;0.50;;
73940;SDS011;62294;48.554;10.202;2023-12-20T08:46:28;0.30;;;0.30;;
73940;SDS011;62294;48.554;10.202;2023-12-20T08:48:55;2.05;;;0.70;;
73940;SDS011;62294;48.554;10.202;2023-12-20T08:51:22;0.28;;;0.28;;
73940;SDS011;62294;48.554;10.202;2023-12-20T08:53:49;0.20;;;0.20;;
73940;SDS011;62294;48.554;10.202;2023-12-20T08:56:16;0.32;;;0.32;;
73940;SDS011;62294;48.554;10.202;2023-12-20T08:58:44;0.28;;;0.28;;
73940;SDS011;62294;48.554;10.202;2023-12-20T09:01:12;0.40;;;0.32;;
73940;SDS011;62294;48.554;10.202;2023-12-20T09:03:40;0.28;;;0.28;;
73940;SDS011;62294;48.554;10.202;2023-12-20T09:06:07;0.73;;;0.35;;
73940;SDS011;62294;48.554;10.202;2023-12-20T09:08:33;0.47;;;0.40;;
73940;SDS011;62294;48.554;10.202;2023-12-20T09:11:00;0.40;;;0.40;;
73940;SDS011;62294;48.554;10.202;2023-12-20T09:13:27;0.88;;;0.55;;
73940;SDS011;62294;48.554;10.202;2023-12-20T09:15:55;0.65;;;0.38;;
73940;SDS011;62294;48.554;10.202;2023-12-20T09:18:22;0.30;;;0.30;;
73940;SDS011;62294;48.554;10.202;2023-12-20T09:20:49;1.23;;;1.00;;
73940;SDS011;62294;48.554;10.202;2023-12-20T09:23:16;1.98;;;0.90;;
73940;SDS011;62294;48.554;10.202;2023-12-20T09:25:43;1.60;;;1.17;;
73940;SDS011;62294;48.554;10.202;2023-12-20T09:28:11;1.15;;;1.02;;
73940;SDS011;62294;48.554;10.202;2023-12-20T09:30:37;1.80;;;1.50;;
73940;SDS011;62294;48.554;10.202;2023-12-20T09:33:06;2.47;;;1.42;;
73940;SDS011;62294;48.554;10.202;2023-12-20T09:35:33;1.45;;;1.25;;
73940;SDS011;62294;48.554;10.202;2023-12-20T09:38:00;3.50;;;1.70;;
73940;SDS011;62294;48.554;10.202;2023-12-20T09:40:27;2.33;;;1.42;;
73940;SDS011;62294;48.554;10.202;2023-12-20T09:43:00;2.47;;;1.50;;
73940;SDS011;62294;48.554;10.202;2023-12-20T09:45:31;2.35;;;2.15;;
73940;SDS011;62294;48.554;10.202;2023-12-20T09:47:58;1.88;;;1.13;;
73940;SDS011;62294;48.554;10.202;2023-12-20T09:50:25;2.80;;;1.33;;
73940;SDS011;62294;48.554;10.202;2023-12-20T09:52:53;1.95;;;1.35;;
73940;SDS011;62294;48.554;10.202;2023-12-20T09:55:22;3.13;;;1.63;;
73940;SDS011;62294;48.554;10.202;2023-12-20T09:57:51;3.15;;;1.70;;
73940;SDS011;62294;48.554;10.202;2023-12-20T10:00:18;3.15;;;2.40;;
73940;SDS011;62294;48.554;10.202;2023-12-20T10:02:45;3.70;;;1.65;;
73940;SDS011;62294;48.554;10.202;2023-12-20T10:05:26;8.30;;;1.85;;
73940;SDS011;62294;48.554;10.202;2023-12-20T10:07:57;1.63;;;1.23;;
73940;SDS011;62294;48.554;10.202;2023-12-20T10:10:26;5.43;;;1.70;;
73940;SDS011;62294;48.554;10.202;2023-12-20T10:13:08;3.17;;;1.63;;
73940;SDS011;62294;48.554;10.202;2023-12-20T10:15:36;2.28;;;1.70;;
73940;SDS011;62294;48.554;10.202;2023-12-20T10:18:03;3.30;;;1.45;;
73940;SDS011;62294;48.554;10.202;2023-12-20T10:20:31;3.40;;;1.80;;
73940;SDS011;62294;48.554;10.202;2023-12-20T10:22:59;1.67;;;1.42;;
73940;SDS011;62294;48.554;10.202;2023-12-20T10:25:26;7.18;;;2.10;;
73940;SDS011;62294;48.554;10.202;2023-12-20T10:30:41;1.52;;;1.42;;
73940;SDS011;62294;48.554;10.202;2023-12-20T10:33:09;2.10;;;1.73;;
73940;SDS011;62294;48.554;10.202;2023-12-20T10:35:39;2.55;;;1.60;;
73940;SDS011;62294;48.554;10.202;2023-12-20T10:38:11;2.95;;;1.90;;
73940;SDS011;62294;48.554;10.202;2023-12-20T10:40:39;2.38;;;1.50;;
73940;SDS011;62294;48.554;10.202;2023-12-20T10:43:07;1.83;;;1.33;;
73940;SDS011;62294;48.554;10.202;2023-12-20T10:45:34;2.13;;;1.65;;
73940;SDS011;62294;48.554;10.202;2023-12-20T10:48:01;2.55;;;1.60;;
73940;SDS011;62294;48.554;10.202;2023-12-20T10:50:29;2.67;;;1.63;;
73940;SDS011;62294;48.554;10.202;2023-12-20T10:52:57;2.95;;;1.77;;
73940;SDS011;62294;48.554;10.202;2023-12-20T10:55:25;3.60;;;1.50;;
73940;SDS011;62294;48.554;10.202;2023-12-20T10:57:52;2.20;;;1.52;;
73940;SDS011;62294;48.554;10.202;2023-12-20T11:00:26;4.33;;;1.57;;
73940;SDS011;62294;48.554;10.202;2023-12-20T11:02:56;3.13;;;1.58;;
73940;SDS011;62294;48.554;10.202;2023-12-20T11:05:33;1.95;;;1.50;;
73940;SDS011;62294;48.554;10.202;2023-12-20T11:10:51;3.33;;;1.52;;
73940;SDS011;62294;48.554;10.202;2023-12-20T11:13:23;3.13;;;1.42;;
73940;SDS011;62294;48.554;10.202;2023-12-20T11:15:58;2.28;;;1.10;;
73940;SDS011;62294;48.554;10.202;2023-12-20T11:18:31;3.92;;;1.40;;
73940;SDS011;62294;48.554;10.202;2023-12-20T11:21:02;3.20;;;1.60;;
73940;SDS011;62294;48.554;10.202;2023-12-20T11:23:31;3.40;;;1.23;;
73940;SDS011;62294;48.554;10.202;2023-12-20T11:26:00;1.65;;;1.48;;
73940;SDS011;62294;48.554;10.202;2023-12-20T11:28:28;5.63;;;1.40;;
73940;SDS011;62294;48.554;10.202;2023-12-20T11:30:57;3.38;;;1.38;;
73940;SDS011;62294;48.554;10.202;2023-12-20T11:33:47;1.20;;;1.10;;
73940;SDS011;62294;48.554;10.202;2023-12-20T11:36:15;3.28;;;1.05;;
73940;SDS011;62294;48.554;10.202;2023-12-20T11:38:57;5.15;;;1.08;;
73940;SDS011;62294;48.554;10.202;2023-12-20T11:41:25;2.67;;;1.70;;
73940;SDS011;62294;48.554;10.202;2023-12-20T11:43:55;2.97;;;1.30;;
73940;SDS011;62294;48.554;10.202;2023-12-20T11:46:22;1.33;;;0.93;;
73940;SDS011;62294;48.554;10.202;2023-12-20T11:48:49;3.10;;;1.40;;
73940;SDS011;62294;48.554;10.202;2023-12-20T11:51:15;1.67;;;1.10;;
73940;SDS011;62294;48.554;10.202;2023-12-20T11:53:42;1.88;;;0.80;;
73940;SDS011;62294;48.554;10.202;2023-12-20T11:56:09;6.30;;;1.08;;
73940;SDS011;62294;48.554;10.202;2023-12-20T11:58:36;4.35;;;1.23;;
73940;SDS011;62294;48.554;10.202;2023-12-20T12:01:03;1.48;;;1.23;;
73940;SDS011;62294;48.554;10.202;2023-12-20T12:03:31;4.70;;;1.13;;
73940;SDS011;62294;48.554;10.202;2023-12-20T12:05:57;1.42;;;1.17;;
73940;SDS011;62294;48.554;10.202;2023-12-20T12:08:25;2.05;;;1.30;;
73940;SDS011;62294;48.554;10.202;2023-12-20T12:10:51;3.00;;;1.10;;
73940;SDS011;62294;48.554;10.202;2023-12-20T12:13:18;4.55;;;1.23;;
73940;SDS011;62294;48.554;10.202;2023-12-20T12:15:45;2.97;;;1.27;;
73940;SDS011;62294;48.554;10.202;2023-12-20T12:18:15;1.20;;;0.90;;
73940;SDS011;62294;48.554;10.202;2023-12-20T12:20:42;1.50;;;1.00;;
73940;SDS011;62294;48.554;10.202;2023-12-20T12:23:09;2.13;;;1.10;;
73940;SDS011;62294;48.554;10.202;2023-12-20T12:25:35;1.55;;;1.20;;
73940;SDS011;62294;48.554;10.202;2023-12-20T12:28:08;2.70;;;1.30;;
73940;SDS011;62294;48.554;10.202;2023-12-20T12:30:35;3.58;;;1.40;;
73940;SDS011;62294;48.554;10.202;2023-12-20T12:33:11;1.42;;;1.27;;
73940;SDS011;62294;48.554;10.202;2023-12-20T12:35:39;4.22;;;1.38;;
73940;SDS011;62294;48.554;10.202;2023-12-20T12:38:06;5.60;;;1.58;;
73940;SDS011;62294;48.554;10.202;2023-12-20T12:40:34;2.78;;;2.17;;
73940;SDS011;62294;48.554;10.202;2023-12-20T12:43:03;4.80;;;1.30;;
73940;SDS011;62294;48.554;10.202;2023-12-20T12:45:30;5.25;;;1.88;;
73940;SDS011;62294;48.554;10.202;2023-12-20T12:47:57;1.55;;;1.10;;
73940;SDS011;62294;48.554;10.202;2023-12-20T12:50:23;2.05;;;1.17;;
73940;SDS011;62294;48.554;10.202;2023-12-20T12:52:51;3.60;;;1.60;;
73940;SDS011;62294;48.554;10.202;2023-12-20T12:55:17;4.55;;;1.50;;
73940;SDS011;62294;48.554;10.202;2023-12-20T12:57:43;1.67;;;1.15;;
73940;SDS011;62294;48.554;10.202;2023-12-20T13:00:11;2.85;;;1.10;;
73940;SDS011;62294;48.554;10.202;2023-12-20T13:02:38;2.08;;;1.10;;
73940;SDS011;62294;48.554;10.202;2023-12-20T13:05:08;0.82;;;0.82;;
73940;SDS011;62294;48.554;10.202;2023-12-20T13:07:35;4.80;;;1.17;;
73940;SDS011;62294;48.554;10.202;2023-12-20T13:10:04;2.28;;;1.20;;
73940;SDS011;62294;48.554;10.202;2023-12-20T13:12:32;2.75;;;1.60;;
73940;SDS011;62294;48.554;10.202;2023-12-20T13:14:58;2.15;;;1.25;;
73940;SDS011;62294;48.554;10.202;2023-12-20T13:17:25;1.48;;;1.20;;
73940;SDS011;62294;48.554;10.202;2023-12-20T13:19:53;2.72;;;1.38;;
73940;SDS011;62294;48.554;10.202;2023-12-20T13:22:20;2.80;;;1.20;;
73940;SDS011;62294;48.554;10.202;2023-12-20T13:24:47;0.80;;;0.80;;
73940;SDS011;62294;48.554;10.202;2023-12-20T13:27:14;2.38;;;1.20;;
73940;SDS011;62294;48.554;10.202;2023-12-20T13:29:40;2.20;;;1.50;;
73940;SDS011;62294;48.554;10.202;2023-12-20T13:32:06;4.55;;;1.10;;
73940;SDS011;62294;48.554;10.202;2023-12-20T13:34:33;2.88;;;1.10;;
73940;SDS011;62294;48.554;10.202;2023-12-20T13:37:00;7.03;;;1.55;;
73940;SDS011;62294;48.554;10.202;2023-12-20T13:39:27;3.22;;;1.25;;
73940;SDS011;62294;48.554;10.202;2023-12-20T13:41:53;2.70;;;1.33;;
73940;SDS011;62294;48.554;10.202;2023-12-20T13:44:24;1.65;;;1.13;;
73940;SDS011;62294;48.554;10.202;2023-12-20T13:46:50;5.63;;;1.58;;
73940;SDS011;62294;48.554;10.202;2023-12-20T13:49:17;2.65;;;1.20;;
73940;SDS011;62294;48.554;10.202;2023-12-20T13:51:44;2.63;;;1.30;;
73940;SDS011;62294;48.554;10.202;2023-12-20T13:54:10;1.67;;;1.05;;
73940;SDS011;62294;48.554;10.202;2023-12-20T13:56:37;1.13;;;1.02;;
73940;SDS011;62294;48.554;10.202;2023-12-20T13:59:16;3.70;;;1.08;;
73940;SDS011;62294;48.554;10.202;2023-12-20T14:01:43;3.60;;;1.10;;
73940;SDS011;62294;48.554;10.202;2023-12-20T14:04:09;2.28;;;1.45;;
73940;SDS011;62294;48.554;10.202;2023-12-20T14:06:57;4.25;;;1.40;;
73940;SDS011;62294;48.554;10.202;2023-12-20T14:09:24;1.55;;;0.80;;
73940;SDS011;62294;48.554;10.202;2023-12-20T14:11:51;2.72;;;1.08;;
73940;SDS011;62294;48.554;10.202;2023-12-20T14:14:17;4.15;;;1.40;;
73940;SDS011;62294;48.554;10.202;2023-12-20T14:16:45;1.80;;;1.00;;
73940;SDS011;62294;48.554;10.202;2023-12-20T14:19:11;2.53;;;1.45;;
73940;SDS011;62294;48.554;10.202;2023-12-20T14:21:38;8.48;;;1.75;;
73940;SDS011;62294;48.554;10.202;2023-12-20T14:24:04;0.90;;;0.57;;
73940;SDS011;62294;48.554;10.202;2023-12-20T14:26:31;1.10;;;1.00;;
73940;SDS011;62294;48.554;10.202;2023-12-20T14:28:58;1.75;;;0.90;;
73940;SDS011;62294;48.554;10.202;2023-12-20T14:31:24;1.83;;;0.82;;
73940;SDS011;62294;48.554;10.202;2023-12-20T14:33:51;1.20;;;1.10;;
73940;SDS011;62294;48.554;10.202;2023-12-20T14:36:20;0.38;;;0.38;;
73940;SDS011;62294;48.554;10.202;2023-12-20T14:38:47;1.27;;;0.80;;
73940;SDS011;62294;48.554;10.202;2023-12-20T14:41:16;3.47;;;0.80;;